Time;durP1;ratioP1;P1;durP2;ratioP2;P2;SDS_P1;SDS_P2;PMS_P1;PMS_P2;Temp;Humidity;BMP_temperature;BMP_pressure;BME280_temperature;BME280_humidity;BME280_pressure;Samples;Min_cycle;Max_cycle;Signal;HPM_P1;HPM_P2
2022/03/02 00:01:57;;;;;;;27.40;14.88;;;5.00;99.90;;;;;;5067506;28;20110;-71
2022/03/02 00:04:23;;;;;;;28.80;15.80;;;5.00;99.90;;;;;;5085128;28;20032;-70
2022/03/02 00:06:48;;;;;;;27.40;15.10;;;5.00;99.90;;;;;;5062669;28;20024;-71
2022/03/02 00:09:21;;;;;;;30.92;15.15;;;5.00;99.90;;;;;;5090494;28;20028;-70
2022/03/02 00:11:47;;;;;;;27.95;16.55;;;4.90;99.90;;;;;;5088252;28;20017;-71
2022/03/02 00:14:13;;;;;;;28.23;15.57;;;4.90;99.90;;;;;;5075853;28;20088;-71
2022/03/02 00:16:39;;;;;;;26.88;14.65;;;4.90;99.90;;;;;;5087620;28;20376;-71
2022/03/02 00:19:06;;;;;;;27.08;15.90;;;4.90;99.90;;;;;;5088504;28;20103;-71
2022/03/02 00:21:32;;;;;;;27.85;15.35;;;4.90;99.90;;;;;;5051671;28;20548;-70
2022/03/02 00:24:03;;;;;;;25.63;14.32;;;4.90;99.90;;;;;;5078376;28;20025;-71
2022/03/02 00:26:32;;;;;;;27.58;15.90;;;4.90;99.90;;;;;;5091557;28;20056;-70
2022/03/02 00:28:59;;;;;;;24.83;14.18;;;4.90;99.90;;;;;;5085075;28;20055;-71
2022/03/02 00:31:25;;;;;;;27.13;15.35;;;4.90;99.90;;;;;;5051888;28;20020;-72
2022/03/02 00:33:51;;;;;;;27.88;15.52;;;4.90;99.90;;;;;;5071501;28;20393;-71
2022/03/02 00:36:17;;;;;;;32.65;15.70;;;4.90;99.90;;;;;;5050324;28;20054;-71
2022/03/02 00:38:43;;;;;;;30.10;16.60;;;4.90;99.90;;;;;;5086268;28;20028;-71
2022/03/02 00:41:10;;;;;;;27.75;15.40;;;4.90;99.90;;;;;;5084886;28;20497;-70
2022/03/02 00:43:36;;;;;;;28.17;15.30;;;4.90;99.90;;;;;;5082948;28;20064;-71
2022/03/02 00:46:02;;;;;;;29.17;14.98;;;4.80;99.90;;;;;;5074917;28;20511;-72
2022/03/02 00:48:28;;;;;;;27.63;14.57;;;4.80;99.90;;;;;;5093854;28;20016;-71
2022/03/02 00:50:54;;;;;;;27.95;16.70;;;4.80;99.90;;;;;;5075800;28;20021;-71
2022/03/02 00:53:20;;;;;;;33.65;17.70;;;4.80;99.90;;;;;;5075215;28;20032;-71
2022/03/02 00:55:45;;;;;;;34.72;18.67;;;4.80;99.90;;;;;;5065701;28;20470;-71
2022/03/02 00:58:11;;;;;;;29.20;17.10;;;4.80;99.90;;;;;;5050721;28;20035;-71
2022/03/02 01:00:37;;;;;;;30.30;17.25;;;4.70;99.90;;;;;;5090277;28;20162;-71
2022/03/02 01:03:03;;;;;;;36.85;17.17;;;4.70;99.90;;;;;;5084923;28;20031;-71
2022/03/02 01:05:29;;;;;;;33.35;16.55;;;4.60;99.90;;;;;;5089674;28;20024;-71
2022/03/02 01:07:55;;;;;;;32.60;18.00;;;4.60;99.90;;;;;;5082495;28;20388;-71
2022/03/02 01:10:21;;;;;;;30.27;16.38;;;4.60;99.90;;;;;;5066223;28;20020;-71
2022/03/02 01:12:47;;;;;;;31.95;17.42;;;4.60;99.90;;;;;;5084076;28;20043;-71
2022/03/02 01:15:13;;;;;;;29.92;16.20;;;4.60;99.90;;;;;;5087980;28;20036;-72
2022/03/02 01:17:39;;;;;;;31.63;17.17;;;4.60;99.90;;;;;;5071110;28;20055;-71
2022/03/02 01:20:09;;;;;;;31.05;16.90;;;4.60;99.90;;;;;;5090512;28;20107;-71
2022/03/02 01:22:35;;;;;;;28.85;16.23;;;4.60;99.90;;;;;;5071249;28;20028;-71
2022/03/02 01:25:01;;;;;;;26.10;15.00;;;4.60;99.90;;;;;;5043540;28;20027;-71
2022/03/02 01:27:27;;;;;;;29.50;16.42;;;4.60;99.90;;;;;;5083811;28;20538;-71
2022/03/02 01:29:53;;;;;;;30.83;16.85;;;4.60;99.90;;;;;;5085783;28;20020;-71
2022/03/02 01:32:19;;;;;;;32.92;16.40;;;4.50;99.90;;;;;;5070231;28;20020;-71
2022/03/02 01:34:46;;;;;;;31.98;17.20;;;4.60;99.90;;;;;;5045411;28;20032;-72
2022/03/02 01:37:12;;;;;;;29.67;16.20;;;4.60;99.90;;;;;;5082046;28;20631;-71
2022/03/02 01:39:38;;;;;;;31.52;16.45;;;4.60;99.90;;;;;;5073696;28;20092;-71
2022/03/02 01:42:05;;;;;;;29.90;16.60;;;4.50;99.90;;;;;;5093999;28;20028;-71
2022/03/02 01:44:32;;;;;;;28.38;15.02;;;4.50;99.90;;;;;;5082465;28;20028;-71
2022/03/02 01:46:58;;;;;;;29.95;16.27;;;4.50;99.90;;;;;;5064976;28;20105;-71
2022/03/02 01:49:24;;;;;;;31.65;16.55;;;4.50;99.90;;;;;;5087752;28;20116;-72
2022/03/02 01:51:50;;;;;;;26.73;15.23;;;4.50;99.90;;;;;;5091139;28;20528;-71
2022/03/02 01:54:16;;;;;;;25.20;15.93;;;4.50;99.90;;;;;;5063363;28;20390;-71
2022/03/02 01:56:42;;;;;;;31.48;17.92;;;4.50;99.90;;;;;;5081669;28;20035;-71
2022/03/02 01:59:08;;;;;;;29.00;16.98;;;4.50;99.90;;;;;;5071539;28;20021;-71
2022/03/02 02:01:34;;;;;;;29.08;16.30;;;4.50;99.90;;;;;;5059020;28;20032;-71
2022/03/02 02:04:01;;;;;;;32.90;15.90;;;4.50;99.90;;;;;;5034942;28;20363;-71
2022/03/02 02:06:27;;;;;;;26.17;15.93;;;4.50;99.90;;;;;;5067660;28;20017;-71
2022/03/02 02:08:53;;;;;;;29.27;15.38;;;4.50;99.90;;;;;;5086556;28;20555;-71
2022/03/02 02:11:19;;;;;;;26.35;15.50;;;4.50;99.90;;;;;;5090797;28;20039;-72
2022/03/02 02:13:45;;;;;;;31.58;16.73;;;4.50;99.90;;;;;;5059436;28;20044;-71
2022/03/02 02:16:13;;;;;;;31.33;16.77;;;4.50;99.90;;;;;;5085618;28;20078;-71
2022/03/02 02:18:39;;;;;;;28.65;16.23;;;4.50;99.90;;;;;;5088333;28;20047;-71
2022/03/02 02:21:09;;;;;;;30.42;16.17;;;4.50;99.90;;;;;;5088303;28;20367;-71
2022/03/02 02:23:37;;;;;;;28.77;15.02;;;4.50;99.90;;;;;;5070213;28;20461;-72
2022/03/02 02:26:07;;;;;;;32.58;16.67;;;4.40;99.90;;;;;;5078613;28;20031;-70
2022/03/02 02:28:33;;;;;;;25.17;14.52;;;4.50;99.90;;;;;;5073449;28;20031;-71
2022/03/02 02:31:00;;;;;;;26.55;15.00;;;4.40;99.90;;;;;;5074677;28;20016;-71
2022/03/02 02:33:28;;;;;;;32.40;16.02;;;4.50;99.90;;;;;;5086863;28;20608;-71
2022/03/02 02:35:54;;;;;;;25.73;15.45;;;4.40;99.90;;;;;;5087142;28;20070;-71
2022/03/02 02:38:21;;;;;;;28.17;15.68;;;4.40;99.90;;;;;;5065871;28;20039;-71
2022/03/02 02:40:51;;;;;;;26.88;15.45;;;4.40;99.90;;;;;;5068578;28;20024;-71
2022/03/02 02:43:20;;;;;;;24.33;15.20;;;4.40;99.90;;;;;;5066445;28;20024;-71
2022/03/02 02:45:46;;;;;;;28.27;16.27;;;4.40;99.90;;;;;;5085364;28;20089;-71
2022/03/02 02:48:12;;;;;;;25.15;15.00;;;4.40;99.90;;;;;;5087641;28;20071;-71
2022/03/02 02:50:38;;;;;;;27.95;15.85;;;4.40;99.90;;;;;;5088469;28;20037;-71
2022/03/02 02:53:07;;;;;;;27.00;14.85;;;4.40;99.90;;;;;;5081336;28;20031;-71
2022/03/02 02:55:33;;;;;;;29.45;15.95;;;4.40;99.90;;;;;;5083208;28;20370;-71
2022/03/02 02:58:00;;;;;;;32.28;17.08;;;4.40;99.90;;;;;;5080652;28;20024;-71
2022/03/02 03:00:29;;;;;;;26.42;15.27;;;4.40;99.90;;;;;;5072049;28;20024;-72
2022/03/02 03:02:56;;;;;;;28.58;15.73;;;4.40;99.90;;;;;;5070894;28;20031;-71
2022/03/02 03:05:25;;;;;;;27.70;15.52;;;4.40;99.90;;;;;;5065859;28;20036;-71
2022/03/02 03:07:53;;;;;;;;;;;4.40;99.90;;;;;;5071412;28;20024;-71
2022/03/02 03:10:20;;;;;;;28.17;14.55;;;4.30;99.90;;;;;;5053782;28;19904;-70
2022/03/02 03:12:47;;;;;;;28.08;14.82;;;4.30;99.90;;;;;;5077534;28;20509;-69
2022/03/02 03:15:15;;;;;;;28.40;16.85;;;4.30;99.90;;;;;;5087890;28;20032;-70
2022/03/02 03:17:41;;;;;;;28.73;15.90;;;4.30;99.90;;;;;;5084619;28;20477;-69
2022/03/02 03:20:09;;;;;;;27.33;14.95;;;4.30;99.90;;;;;;5086542;28;20027;-70
2022/03/02 03:22:35;;;;;;;25.95;15.02;;;4.20;99.90;;;;;;5076649;28;20028;-71
2022/03/02 03:25:02;;;;;;;26.10;15.07;;;4.20;99.90;;;;;;5104977;22;20040;-74
2022/03/02 03:27:29;;;;;;;28.73;15.43;;;4.20;99.90;;;;;;5050740;28;20032;-75
2022/03/02 03:29:55;;;;;;;26.58;15.25;;;4.20;99.90;;;;;;5095940;28;20015;-74
2022/03/02 03:32:20;;;;;;;27.35;15.77;;;4.30;99.90;;;;;;5078117;28;20071;-75
2022/03/02 03:34:46;;;;;;;26.70;16.00;;;4.20;99.90;;;;;;5094268;28;20028;-73
2022/03/02 03:37:14;;;;;;;32.35;17.27;;;4.20;99.90;;;;;;5082021;27;20088;-75
2022/03/02 03:39:42;;;;;;;27.90;14.75;;;4.20;99.90;;;;;;5102309;27;20023;-74
2022/03/02 03:42:09;;;;;;;30.33;16.33;;;4.20;99.90;;;;;;5102097;27;20425;-74
2022/03/02 03:44:35;;;;;;;27.23;15.57;;;4.20;99.90;;;;;;5117704;27;20032;-74
2022/03/02 03:47:01;;;;;;;24.55;15.02;;;4.10;99.90;;;;;;5119410;27;20058;-74
2022/03/02 03:49:26;;;;;;;31.98;16.02;;;4.10;99.90;;;;;;5101251;27;20054;-74
2022/03/02 03:51:54;;;;;;;29.52;15.38;;;4.10;99.90;;;;;;5122275;27;20047;-74
2022/03/02 03:54:20;;;;;;;28.10;14.93;;;4.10;99.90;;;;;;5101810;27;20058;-74
2022/03/02 03:56:46;;;;;;;25.45;14.40;;;4.10;99.90;;;;;;5101768;27;20031;-73
2022/03/02 03:59:12;;;;;;;29.02;16.38;;;4.10;99.90;;;;;;5083619;27;20034;-74
2022/03/02 04:01:42;;;;;;;28.27;15.52;;;4.10;99.90;;;;;;5085598;27;20079;-74
2022/03/02 04:04:08;;;;;;;23.55;13.40;;;4.00;99.90;;;;;;5120531;27;20027;-74
2022/03/02 04:06:33;;;;;;;28.65;15.02;;;4.00;99.90;;;;;;5100371;27;20373;-74
2022/03/02 04:08:59;;;;;;;26.52;14.27;;;4.00;99.90;;;;;;5120225;27;20039;-73
2022/03/02 04:11:25;;;;;;;26.98;13.88;;;4.00;99.90;;;;;;5119786;27;20029;-74
2022/03/02 04:13:53;;;;;;;26.13;13.50;;;4.00;99.90;;;;;;5119391;27;20027;-74
2022/03/02 04:16:18;;;;;;;22.48;13.00;;;4.00;99.90;;;;;;5101644;27;20028;-74
2022/03/02 04:18:44;;;;;;;26.92;14.63;;;4.00;99.90;;;;;;5102458;27;20038;-74
2022/03/02 04:21:10;;;;;;;23.88;13.77;;;3.90;99.90;;;;;;5120373;27;20111;-74
2022/03/02 04:23:35;;;;;;;24.17;14.80;;;3.90;99.90;;;;;;5119221;27;20053;-74
2022/03/02 04:26:01;;;;;;;26.73;14.38;;;3.90;99.90;;;;;;5103358;27;20068;-74
2022/03/02 04:28:29;;;;;;;29.13;14.85;;;3.90;99.90;;;;;;5120366;27;20512;-74
2022/03/02 04:30:55;;;;;;;26.08;13.48;;;3.90;99.90;;;;;;5119411;27;20028;-74
2022/03/02 04:33:20;;;;;;;26.15;14.63;;;3.90;99.90;;;;;;5105389;27;20020;-74
2022/03/02 04:35:46;;;;;;;26.83;13.98;;;3.90;99.90;;;;;;5129386;27;20011;-75
2022/03/02 04:38:12;;;;;;;25.88;14.55;;;3.90;99.90;;;;;;5121201;27;20435;-74
2022/03/02 04:40:37;;;;;;;26.15;14.63;;;3.90;99.90;;;;;;5101771;27;20051;-74
2022/03/02 04:43:03;;;;;;;24.55;13.60;;;3.80;99.90;;;;;;5101656;27;20634;-74
2022/03/02 04:45:31;;;;;;;25.58;14.30;;;3.80;99.90;;;;;;5104305;27;20023;-74
2022/03/02 04:48:00;;;;;;;24.02;13.88;;;3.80;99.90;;;;;;5101703;27;20019;-75
2022/03/02 04:50:27;;;;;;;27.17;15.23;;;3.70;99.90;;;;;;5119280;27;20036;-74
2022/03/02 04:52:54;;;;;;;25.60;14.23;;;3.70;99.90;;;;;;5100493;27;20114;-75
2022/03/02 04:55:21;;;;;;;25.83;15.60;;;3.70;99.90;;;;;;5120162;27;20043;-75
2022/03/02 04:57:51;;;;;;;29.05;15.73;;;3.70;99.90;;;;;;5119163;27;20038;-74
2022/03/02 05:00:21;;;;;;;26.08;15.05;;;3.70;99.90;;;;;;5122567;27;20075;-75
2022/03/02 05:02:47;;;;;;;28.70;15.40;;;3.70;99.90;;;;;;5122926;27;20502;-75
2022/03/02 05:05:18;;;;;;;28.02;15.07;;;3.60;99.90;;;;;;5122259;27;20043;-75
2022/03/02 05:07:44;;;;;;;29.83;15.20;;;3.60;99.90;;;;;;5084164;27;20042;-75
2022/03/02 05:10:12;;;;;;;25.45;14.63;;;3.50;99.90;;;;;;5101501;27;20038;-75
2022/03/02 05:12:38;;;;;;;28.30;15.63;;;3.50;99.90;;;;;;5100758;27;20031;-75
2022/03/02 05:15:10;;;;;;;27.98;15.57;;;3.50;99.90;;;;;;5098587;27;20033;-75
2022/03/02 05:17:37;;;;;;;28.10;15.23;;;3.50;99.90;;;;;;5086143;27;20075;-76
2022/03/02 05:20:04;;;;;;;27.70;15.95;;;3.40;99.90;;;;;;5120289;27;20507;-74
2022/03/02 05:22:30;;;;;;;29.63;16.52;;;3.40;99.90;;;;;;5116214;27;20027;-75
2022/03/02 05:24:56;;;;;;;29.10;14.73;;;3.30;99.90;;;;;;5099705;27;20030;-75
2022/03/02 05:27:21;;;;;;;28.45;15.70;;;3.30;99.90;;;;;;5101043;27;20016;-76
2022/03/02 05:29:47;;;;;;;30.73;16.35;;;3.40;99.90;;;;;;5100197;27;20071;-75
2022/03/02 05:32:13;;;;;;;27.63;15.68;;;3.40;99.90;;;;;;5114130;27;20031;-75
2022/03/02 05:34:39;;;;;;;28.10;15.48;;;3.30;99.90;;;;;;5083227;27;20031;-75
2022/03/02 05:37:05;;;;;;;28.85;15.57;;;3.30;99.90;;;;;;5098458;27;20024;-75
2022/03/02 05:39:31;;;;;;;30.88;16.70;;;3.20;99.90;;;;;;5085132;27;20031;-75
2022/03/02 05:41:56;;;;;;;26.83;15.20;;;3.20;99.90;;;;;;5098037;27;20047;-75
2022/03/02 05:44:24;;;;;;;31.35;16.65;;;3.20;99.90;;;;;;5100041;27;20034;-76
2022/03/02 05:46:52;;;;;;;28.77;15.57;;;3.20;99.90;;;;;;5084241;27;20070;-75
2022/03/02 05:49:19;;;;;;;27.92;16.38;;;3.20;99.90;;;;;;5098087;27;20522;-76
2022/03/02 05:51:44;;;;;;;31.25;16.90;;;3.20;99.90;;;;;;5098647;27;20031;-75
2022/03/02 05:54:10;;;;;;;27.98;15.40;;;3.20;99.90;;;;;;5082468;27;20054;-75
2022/03/02 05:56:38;;;;;;;30.85;16.90;;;3.20;99.90;;;;;;5081021;27;20027;-75
2022/03/02 05:59:11;;;;;;;29.05;16.17;;;3.10;99.90;;;;;;5118243;27;20511;-75
2022/03/02 06:01:38;;;;;;;30.92;16.80;;;3.10;99.90;;;;;;5107181;27;20022;-74
2022/03/02 06:04:08;;;;;;;29.48;16.83;;;3.10;99.90;;;;;;5100555;27;20030;-74
2022/03/02 06:06:35;;;;;;;27.48;14.95;;;3.00;99.90;;;;;;5116672;27;20080;-75
2022/03/02 06:09:07;;;;;;;27.73;15.77;;;3.10;99.90;;;;;;5081667;27;20430;-75
2022/03/02 06:11:35;;;;;;;30.92;16.45;;;3.10;99.90;;;;;;5097355;27;20048;-75
2022/03/02 06:14:01;;;;;;;29.45;15.93;;;3.10;99.90;;;;;;5097940;27;20030;-76
2022/03/02 06:16:27;;;;;;;31.60;17.38;;;3.00;99.90;;;;;;5096762;27;20016;-76
2022/03/02 06:18:53;;;;;;;28.98;16.10;;;3.10;99.90;;;;;;5113513;27;20153;-75
2022/03/02 06:21:23;;;;;;;28.85;16.15;;;3.10;99.90;;;;;;5092498;28;20524;-75
2022/03/02 06:23:49;;;;;;;32.40;16.92;;;3.10;99.90;;;;;;5077023;27;20027;-74
2022/03/02 06:26:17;;;;;;;31.20;16.67;;;3.10;99.90;;;;;;5115094;27;20050;-75
2022/03/02 06:28:43;;;;;;;33.85;16.30;;;3.10;99.90;;;;;;5115161;27;20047;-75
2022/03/02 06:31:09;;;;;;;31.92;16.50;;;3.10;99.90;;;;;;5077100;28;20032;-74
2022/03/02 06:33:37;;;;;;;28.70;16.10;;;3.10;99.90;;;;;;5092177;28;20041;-75
2022/03/02 06:36:03;;;;;;;29.58;17.38;;;3.00;99.90;;;;;;5088680;28;20469;-75
2022/03/02 06:38:29;;;;;;;29.90;17.00;;;3.00;99.90;;;;;;5090455;28;20020;-73
2022/03/02 06:40:58;;;;;;;32.70;16.75;;;3.00;99.90;;;;;;5106631;28;20096;-74
2022/03/02 06:43:26;;;;;;;32.85;18.05;;;3.10;99.90;;;;;;5072331;28;20384;-76
2022/03/02 06:45:59;;;;;;;26.20;15.60;;;3.00;99.90;;;;;;5109134;28;21406;-77
2022/03/02 06:48:34;;;;;;;33.00;16.63;;;3.10;99.90;;;;;;5104426;28;20035;-76
2022/03/02 06:51:01;;;;;;;30.63;17.80;;;3.10;99.90;;;;;;5087378;28;20039;-77
2022/03/02 06:53:33;;;;;;;29.70;16.50;;;3.10;99.90;;;;;;5088504;28;20128;-76
2022/03/02 06:56:07;;;;;;;29.95;16.13;;;3.00;99.90;;;;;;5091943;28;20019;-78
2022/03/02 06:58:53;;;;;;;29.33;15.85;;;3.00;99.90;;;;;;5088315;28;20167;-76
2022/03/02 07:01:32;;;;;;;29.27;16.10;;;3.10;99.90;;;;;;5092792;28;20053;-77
2022/03/02 07:04:01;;;;;;;28.52;15.63;;;3.10;99.90;;;;;;5088463;28;20027;-77
2022/03/02 07:06:28;;;;;;;26.77;15.75;;;3.10;99.90;;;;;;5090457;28;20023;-77
2022/03/02 07:08:55;;;;;;;26.15;15.30;;;3.20;99.90;;;;;;5093591;28;20393;-77
2022/03/02 07:11:23;;;;;;;32.08;17.40;;;3.20;99.90;;;;;;5115022;27;20032;-76
2022/03/02 07:13:51;;;;;;;28.30;15.70;;;3.20;99.90;;;;;;5106892;27;20054;-77
2022/03/02 07:16:21;;;;;;;31.00;16.48;;;3.20;99.90;;;;;;5105083;27;20027;-77
2022/03/02 07:18:47;;;;;;;32.07;16.83;;;3.20;99.90;;;;;;5089471;28;20028;-77
2022/03/02 07:21:15;;;;;;;31.73;17.08;;;3.20;99.90;;;;;;5121234;27;20268;-77
2022/03/02 07:24:14;;;;;;;30.48;16.15;;;3.20;99.90;;;;;;5094918;27;20039;-77
2022/03/02 07:26:43;;;;;;;32.45;17.63;;;3.30;99.90;;;;;;5073842;27;20164;-77
2022/03/02 07:29:12;;;;;;;31.35;17.73;;;3.30;99.90;;;;;;5095223;27;20090;-76
2022/03/02 07:31:38;;;;;;;33.00;17.70;;;3.30;99.90;;;;;;5080173;27;20031;-77
2022/03/02 07:34:07;;;;;;;29.30;16.05;;;3.40;99.90;;;;;;5099246;27;20064;-77
2022/03/02 07:36:35;;;;;;;29.10;17.08;;;3.40;99.90;;;;;;5103285;27;20023;-77
2022/03/02 07:39:01;;;;;;;33.45;17.70;;;3.40;99.90;;;;;;5089794;27;20441;-75
2022/03/02 07:41:27;;;;;;;35.33;18.60;;;3.40;99.90;;;;;;5095353;27;20034;-76
2022/03/02 07:43:53;;;;;;;27.25;16.20;;;3.40;99.90;;;;;;5098844;27;20035;-75
2022/03/02 07:46:18;;;;;;;28.92;16.75;;;3.40;99.90;;;;;;5102292;27;20035;-76
2022/03/02 07:48:44;;;;;;;30.67;17.20;;;3.50;99.90;;;;;;5111410;27;20028;-75
2022/03/02 07:51:10;;;;;;;30.88;17.13;;;3.50;99.90;;;;;;5092855;27;20541;-75
2022/03/02 07:53:40;;;;;;;31.73;17.08;;;3.50;99.90;;;;;;5118774;27;20465;-76
2022/03/02 07:56:08;;;;;;;32.58;17.58;;;3.50;99.90;;;;;;5092326;27;20127;-77
2022/03/02 07:58:38;;;;;;;32.47;16.60;;;3.50;99.90;;;;;;5108504;27;20023;-77
2022/03/02 08:01:03;;;;;;;30.92;16.38;;;3.50;99.90;;;;;;5100052;27;20023;-74
2022/03/02 08:03:32;;;;;;;30.15;16.45;;;3.60;99.90;;;;;;5100664;27;20392;-75
2022/03/02 08:06:00;;;;;;;29.30;16.45;;;3.60;99.90;;;;;;5112904;27;20141;-75
2022/03/02 08:08:25;;;;;;;31.75;16.17;;;3.60;99.90;;;;;;5097076;27;20027;-78
2022/03/02 08:10:55;;;;;;;30.55;16.88;;;3.70;99.90;;;;;;5087720;27;20043;-75
2022/03/02 08:13:22;;;;;;;30.05;15.88;;;3.70;99.90;;;;;;5101549;27;20107;-76
2022/03/02 08:15:48;;;;;;;27.83;16.38;;;3.70;99.90;;;;;;5097015;28;20384;-76
2022/03/02 08:18:14;;;;;;;27.08;15.60;;;3.80;99.90;;;;;;5113266;27;20024;-76
2022/03/02 08:20:47;;;;;;;28.70;15.95;;;3.80;99.90;;;;;;5090762;27;20028;-76
2022/03/02 08:23:13;;;;;;;20.67;12.40;;;3.80;99.90;;;;;;5114293;27;20043;-76
2022/03/02 08:25:39;;;;;;;23.52;14.38;;;3.90;99.90;;;;;;5106858;27;20035;-76
2022/03/02 08:28:09;;;;;;;30.05;15.93;;;4.10;99.90;;;;;;5096486;27;20038;-76
2022/03/02 08:30:38;;;;;;;26.05;14.70;;;4.10;99.90;;;;;;5108160;28;20093;-76
2022/03/02 08:33:04;;;;;;;30.10;14.50;;;4.10;99.90;;;;;;5090000;27;20036;-76
2022/03/02 08:35:35;;;;;;;27.38;14.57;;;4.10;99.90;;;;;;5097811;28;20028;-76
2022/03/02 08:38:02;;;;;;;26.75;14.68;;;4.10;99.90;;;;;;5096740;27;20023;-76
2022/03/02 08:40:28;;;;;;;24.52;14.43;;;4.10;99.90;;;;;;5093931;27;20024;-76
2022/03/02 08:43:00;;;;;;;28.00;14.68;;;4.10;99.90;;;;;;5110433;27;20672;-76
2022/03/02 08:45:29;;;;;;;24.02;13.70;;;4.20;99.90;;;;;;5092846;28;20034;-76
2022/03/02 08:48:00;;;;;;;25.33;14.00;;;4.20;99.90;;;;;;5092583;27;20024;-76
2022/03/02 08:50:28;;;;;;;23.65;13.57;;;4.30;99.90;;;;;;5071638;27;20020;-76
2022/03/02 08:52:58;;;;;;;26.45;13.73;;;4.30;99.90;;;;;;5110352;27;20027;-76
2022/03/02 08:55:28;;;;;;;24.08;14.13;;;4.30;99.90;;;;;;5083211;28;20492;-76
2022/03/02 08:57:55;;;;;;;26.02;13.45;;;4.40;99.00;;;;;;5103366;27;20028;-77
2022/03/02 09:00:21;;;;;;;27.40;14.95;;;4.40;97.80;;;;;;5081969;27;20558;-76
2022/03/02 09:02:47;;;;;;;26.10;14.90;;;4.50;97.10;;;;;;5114106;27;20028;-76
2022/03/02 09:05:13;;;;;;;27.60;14.40;;;4.50;96.80;;;;;;5121241;27;20035;-76
2022/03/02 09:07:38;;;;;;;24.35;14.73;;;4.50;97.50;;;;;;5083648;27;20020;-76
2022/03/02 09:10:05;;;;;;;27.10;14.98;;;4.50;97.70;;;;;;5105375;28;20016;-76
2022/03/02 09:12:32;;;;;;;29.10;15.32;;;4.60;98.00;;;;;;5115484;27;20445;-76
2022/03/02 09:15:00;;;;;;;28.25;15.82;;;4.60;97.60;;;;;;5088911;27;20040;-77
2022/03/02 09:17:27;;;;;;;31.17;15.73;;;4.70;97.40;;;;;;5075196;27;20027;-76
2022/03/02 09:20:00;;;;;;;30.50;15.90;;;4.70;96.80;;;;;;5089597;27;20651;-76
2022/03/02 09:22:27;;;;;;;25.42;15.38;;;4.70;96.10;;;;;;5110136;27;20384;-76
2022/03/02 09:24:54;;;;;;;30.42;16.05;;;4.80;95.60;;;;;;5088710;28;20028;-76
2022/03/02 09:27:27;;;;;;;26.40;14.00;;;4.80;95.70;;;;;;5081577;22;20052;-72
2022/03/02 09:29:58;;;;;;;22.13;13.95;;;4.90;95.10;;;;;;5102467;28;20035;-70
2022/03/02 09:32:25;;;;;;;30.92;15.63;;;4.90;94.10;;;;;;5078584;28;20026;-72
2022/03/02 09:34:54;;;;;;;22.63;13.38;;;4.90;93.00;;;;;;5079068;28;20028;-71
2022/03/02 09:37:22;;;;;;;25.83;13.43;;;5.00;92.80;;;;;;5072286;28;20028;-70
2022/03/02 09:39:50;;;;;;;26.00;14.60;;;5.10;91.90;;;;;;5056273;28;20112;-70
2022/03/02 09:42:30;;;;;;;25.25;13.95;;;5.10;91.70;;;;;;5076588;28;20033;-70
2022/03/02 09:45:20;;;;;;;25.90;14.68;;;5.20;91.10;;;;;;5073680;28;20028;-70
2022/03/02 09:47:50;;;;;;;19.52;11.60;;;5.20;91.10;;;;;;5073411;28;20099;-70
2022/03/02 09:50:17;;;;;;;20.08;11.93;;;5.30;90.10;;;;;;5077850;28;20024;-70
2022/03/02 09:52:45;;;;;;;24.88;12.95;;;5.30;85.10;;;;;;5076916;28;20053;-71
2022/03/02 09:55:21;;;;;;;19.15;11.32;;;5.40;84.90;;;;;;5076498;28;20099;-71
2022/03/02 09:57:55;;;;;;;20.45;11.65;;;5.50;83.40;;;;;;5073573;28;20036;-71
2022/03/02 10:00:23;;;;;;;20.55;12.07;;;5.70;81.90;;;;;;5073107;28;20357;-70
2022/03/02 10:02:52;;;;;;;22.80;12.35;;;5.90;78.90;;;;;;5075053;28;20131;-71
2022/03/02 10:05:21;;;;;;;22.05;12.80;;;6.00;79.70;;;;;;5069550;28;20400;-71
2022/03/02 10:07:56;;;;;;;21.55;11.75;;;6.30;76.70;;;;;;5069277;28;20024;-71
2022/03/02 10:10:23;;;;;;;23.15;12.95;;;6.50;74.00;;;;;;5057197;28;20024;-71
2022/03/02 10:12:55;;;;;;;21.88;11.52;;;6.80;71.40;;;;;;5078463;28;20540;-71
2022/03/02 10:15:21;;;;;;;21.75;10.75;;;7.00;70.20;;;;;;5069934;28;20082;-71
2022/03/02 10:17:51;;;;;;;22.85;11.05;;;7.10;71.00;;;;;;5073682;28;20024;-71
2022/03/02 10:20:21;;;;;;;20.10;11.35;;;7.50;70.40;;;;;;5073237;28;20558;-72
2022/03/02 10:23:27;;;;;;;17.75;11.75;;;7.90;68.90;;;;;;5072444;28;20028;-71
2022/03/02 10:26:02;;;;;;;22.35;11.85;;;8.50;65.60;;;;;;5071733;28;20039;-72
2022/03/02 10:28:29;;;;;;;20.80;11.93;;;9.20;62.40;;;;;;5074267;28;20032;-72
2022/03/02 10:31:23;;;;;;;21.98;12.60;;;9.80;60.70;;;;;;5074493;28;20040;-72
2022/03/02 10:33:54;;;;;;;19.23;11.82;;;10.60;59.10;;;;;;5071721;28;20040;-73
2022/03/02 10:36:24;;;;;;;17.08;11.57;;;11.70;57.10;;;;;;5070376;28;20106;-69
2022/03/02 10:39:05;;;;;;;16.38;11.13;;;13.10;52.90;;;;;;5072861;28;20025;-73
2022/03/02 10:41:37;;;;;;;17.02;10.88;;;14.70;48.30;;;;;;5073021;28;20067;-70
2022/03/02 10:44:09;;;;;;;15.32;10.88;;;16.30;44.50;;;;;;5073904;28;20040;-70
2022/03/02 10:46:41;;;;;;;14.93;10.35;;;17.90;40.10;;;;;;5078306;28;20120;-71
2022/03/02 10:49:19;;;;;;;14.02;10.10;;;19.50;38.00;;;;;;5076594;28;20024;-71
2022/03/02 10:51:45;;;;;;;13.57;9.85;;;20.70;34.50;;;;;;5078958;28;20032;-71
2022/03/02 10:54:20;;;;;;;11.45;9.13;;;21.30;34.20;;;;;;5080579;28;20115;-71
2022/03/02 10:56:51;;;;;;;13.32;10.57;;;22.50;31.60;;;;;;5079181;28;20060;-71
2022/03/02 10:59:23;;;;;;;14.90;10.30;;;23.30;30.90;;;;;;5079533;28;20800;-71
2022/03/02 11:01:50;;;;;;;13.15;10.48;;;23.60;30.00;;;;;;5079030;28;20028;-71
2022/03/02 11:04:18;;;;;;;12.82;9.73;;;23.90;29.20;;;;;;5060828;28;20082;-71
2022/03/02 11:06:45;;;;;;;13.98;10.38;;;24.10;29.30;;;;;;5075035;28;20040;-71
2022/03/02 11:09:11;;;;;;;13.15;10.50;;;24.10;29.20;;;;;;5077578;28;20031;-71
2022/03/02 11:11:37;;;;;;;12.77;10.73;;;24.20;28.80;;;;;;5062033;28;20045;-71
2022/03/02 11:14:09;;;;;;;14.02;10.30;;;24.30;29.00;;;;;;5078396;28;20050;-72
2022/03/02 11:16:35;;;;;;;13.27;10.32;;;24.50;28.70;;;;;;5078486;28;20408;-72
2022/03/02 11:19:13;;;;;;;14.93;11.63;;;24.70;28.20;;;;;;5079822;28;20027;-72
2022/03/02 11:21:41;;;;;;;15.18;11.20;;;25.20;28.10;;;;;;5076656;28;20041;-72
2022/03/02 11:24:09;;;;;;;14.52;11.65;;;25.30;28.20;;;;;;5080005;28;20111;-71
2022/03/02 11:26:46;;;;;;;15.25;11.23;;;25.30;28.20;;;;;;5079195;28;20039;-70
2022/03/02 11:29:14;;;;;;;16.20;11.25;;;24.90;28.00;;;;;;5075172;28;20026;-71
2022/03/02 11:31:51;;;;;;;18.60;12.88;;;24.40;29.20;;;;;;5051582;28;20481;-70
2022/03/02 11:34:24;;;;;;;17.13;13.23;;;24.00;29.30;;;;;;5078495;28;20123;-71
2022/03/02 11:36:52;;;;;;;15.82;12.55;;;23.40;29.40;;;;;;5062473;28;20031;-71
2022/03/02 11:39:24;;;;;;;16.75;13.23;;;22.90;29.20;;;;;;5079091;28;20036;-71
2022/03/02 11:41:52;;;;;;;17.98;13.48;;;22.30;29.00;;;;;;5078037;28;20063;-71
2022/03/02 11:44:34;;;;;;;19.15;13.40;;;22.00;30.00;;;;;;5076900;28;20032;-70
2022/03/02 11:47:04;;;;;;;17.52;13.50;;;21.30;31.00;;;;;;5076708;28;20478;-71
2022/03/02 11:49:37;;;;;;;18.30;13.23;;;20.60;31.60;;;;;;5078627;28;20043;-71
2022/03/02 11:52:09;;;;;;;18.48;13.43;;;19.50;33.60;;;;;;5060603;28;20023;-71
2022/03/02 11:54:46;;;;;;;20.17;12.77;;;18.40;34.60;;;;;;5078035;28;20127;-71
2022/03/02 11:57:13;;;;;;;18.65;12.65;;;17.30;35.90;;;;;;5070980;28;20039;-71
2022/03/02 11:59:39;;;;;;;21.48;14.57;;;16.00;34.20;;;;;;5078962;28;20033;-71
2022/03/02 12:02:14;;;;;;;21.38;13.75;;;15.10;37.80;;;;;;5073486;28;20056;-73
2022/03/02 12:04:40;;;;;;;22.83;14.43;;;14.30;38.90;;;;;;5073969;28;20628;-70
2022/03/02 12:07:08;;;;;;;22.15;13.88;;;13.50;39.80;;;;;;5075076;28;20033;-72
2022/03/02 12:09:37;;;;;;;21.02;13.75;;;12.90;41.60;;;;;;5071658;28;20056;-72
2022/03/02 12:12:18;;;;;;;22.15;13.35;;;12.40;42.90;;;;;;5058543;28;20051;-72
2022/03/02 12:14:48;;;;;;;20.63;13.50;;;12.10;42.90;;;;;;5071912;28;20036;-71
2022/03/02 12:17:19;;;;;;;617.25;387.42;;;11.70;44.10;;;;;;5075066;28;20108;-70
2022/03/02 12:19:48;;;;;;;384.98;200.82;;;11.30;44.90;;;;;;5074902;28;20024;-73
2022/03/02 12:22:15;;;;;;;268.02;134.52;;;11.10;46.10;;;;;;5074980;28;20028;-70
2022/03/02 12:24:40;;;;;;;56.95;31.80;;;10.80;46.10;;;;;;5077028;28;20032;-70
2022/03/02 12:27:11;;;;;;;56.65;32.30;;;10.50;47.40;;;;;;5075269;28;20115;-70
2022/03/02 12:29:39;;;;;;;20.92;13.05;;;10.30;47.60;;;;;;5073045;28;20122;-72
2022/03/02 12:32:16;;;;;;;23.83;13.25;;;10.10;48.00;;;;;;5072496;28;20025;-71
2022/03/02 12:34:43;;;;;;;23.77;13.80;;;9.90;48.50;;;;;;5076881;28;20028;-71
2022/03/02 12:37:09;;;;;;;20.70;12.90;;;9.70;48.60;;;;;;5079876;28;20127;-71
2022/03/02 12:39:36;;;;;;;23.30;13.77;;;9.60;48.80;;;;;;5076760;28;20366;-71
2022/03/02 12:42:07;;;;;;;28.38;13.13;;;9.40;49.00;;;;;;5077489;28;20119;-72